METAR Data
IDs: Format: Raw Decoded Include TAF

Data at: 2141 UTC 01 Dec 2021

METAR for:KILN (Wilmington Arpt, OH, US)
Text:KILN 012054Z AUTO 14007KT 10SM FEW041 BKN050 OVC090 08/06 A2989 RMK AO2 SLP142 60000 T00780056 56037
Temperature: 7.8°C ( 46°F)
Dewpoint: 5.6°C ( 42°F) [RH = 86%]
Pressure (altimeter):29.89 inches Hg (1012.3 mb) [Sea level pressure: 1014.2 mb]
Winds:from the SE (140 degrees) at 8 MPH (7 knots; 3.6 m/s)
Visibility:10 or more sm (16+ km)
Ceiling:5000 feet AGL
Clouds: few clouds at 4100 feet AGL, broken clouds at 5000 feet AGL, overcast cloud deck at 9000 feet AGL
QC Flag:automated observation with no human augmentation